Check out our new BloomSky Weather System.

Active alerts

Galveston, TX
  Details for Galveston, TX Coastal Flood Advisory  +3 additional alerts
Fort Bend, TX
  Details for Fort Bend, TX Flash Flood Watch


Thunder radar  blitzortung!


Rain radar more information rain snow radar


Visit our other weather sites:

Template documentation
and downloads

And another site



Weather Underground History page Text

Daily Summary for April 17, 2017 Units:  English    Metric   Both
« Previous Day
Next Day »
Daily Weekly Monthly Yearly Custom
  High: Low: Average:
Temperature: TemperatureF °F 66.7 °F 72.7 °F
Dew Point: DewpointF °F 65.1 °F 68.3 °F
Humidity: Humidity % 61 % 87 %
Wind Speed: WindSpeedMPH mph 0.0 mph 1.7 mph
Wind Gust: WindSpeedGustMPH mph - -
Wind:- - SSE
Pressure: PressureIn in 29.92 in -
Precipitation: 0.50 in    
Historical Graphs
 
 
Tabular Data for April 17, 2017
Time Temperature Dew Point Pressure Wind Wind Speed Wind Gust Humidity Rainfall Rate (Hourly)
TemperatureF °F DewpointF °F PressureIn in Calm     Humidity % HourlyPrecipIn in
00:01 71.1 °F 68.5 °F 30.01 in Calm   2.0 mph 92 % 0.00 in
00:06 71.1 °F 68.5 °F 30.01 in SE 1.0 mph 2.0 mph 92 % 0.00 in
00:11 71.1 °F 68.5 °F 30.01 in Calm   2.0 mph 92 % 0.00 in
00:16 71.1 °F 68.9 °F 30.02 in Calm   2.0 mph 93 % 0.00 in
00:21 70.9 °F 68.7 °F 30.02 in Calm   2.0 mph 93 % 0.00 in
00:26 70.9 °F 68.7 °F 30.02 in Calm   2.0 mph 93 % 0.00 in
00:28 70.7 °F 68.5 °F 30.02 in Calm   2.0 mph 93 % 0.00 in
00:33 70.9 °F 68.7 °F 30.02 in SE 2.0 mph 2.0 mph 93 % 0.00 in
00:38 70.9 °F 69.1 °F 30.03 in SSW 1.0 mph 2.0 mph 94 % 0.00 in
00:43 70.7 °F 68.9 °F 30.03 in SSW 2.0 mph 3.0 mph 94 % 0.00 in
00:48 70.7 °F 68.9 °F 30.03 in SSW 2.0 mph 3.0 mph 94 % 0.00 in
00:53 70.5 °F 68.7 °F 30.03 in SSE 1.0 mph 3.0 mph 94 % 0.00 in
00:58 70.5 °F 69.1 °F 30.03 in Calm   3.0 mph 95 % 0.00 in
01:03 70.5 °F 69.1 °F 30.03 in Calm   4.0 mph 95 % 0.00 in
01:08 70.5 °F 69.1 °F 30.02 in SSE 1.0 mph 4.0 mph 95 % 0.00 in
01:13 70.5 °F 69.1 °F 30.02 in SE 2.0 mph 4.0 mph 95 % 0.00 in
01:18 70.5 °F 69.1 °F 30.02 in SSW 3.0 mph 3.0 mph 95 % 0.00 in
01:23 70.7 °F 69.3 °F 30.02 in SE 1.0 mph 3.0 mph 95 % 0.00 in
01:28 70.9 °F 69.4 °F 30.02 in South 2.0 mph 3.0 mph 95 % 0.00 in
01:33 70.9 °F 69.4 °F 30.02 in SSW 1.0 mph 4.0 mph 95 % 0.00 in
01:38 70.9 °F 69.4 °F 30.02 in SSW 2.0 mph 4.0 mph 95 % 0.00 in
01:43 71.1 °F 69.6 °F 30.02 in SSE 1.0 mph 4.0 mph 95 % 0.00 in
01:48 71.1 °F 69.8 °F 30.02 in Calm   4.0 mph 96 % 0.00 in
01:53 71.1 °F 69.6 °F 30.02 in SW 3.0 mph 4.0 mph 95 % 0.00 in
01:58 71.1 °F 69.6 °F 30.02 in Calm   3.0 mph 95 % 0.00 in
01:59 71.1 °F 69.6 °F 30.02 in SSW 1.0 mph 3.0 mph 95 % 0.00 in
02:05 71.2 °F 70.0 °F 30.02 in SSE 1.0 mph 3.0 mph 96 % 0.00 in
02:10 71.2 °F 70.0 °F 30.02 in Calm   3.0 mph 96 % 0.00 in
02:15 71.4 °F 70.2 °F 30.02 in ESE 1.0 mph 3.0 mph 96 % 0.00 in
02:20 71.4 °F 70.2 °F 30.01 in SSE 1.0 mph 2.0 mph 96 % 0.00 in
02:25 71.4 °F 70.0 °F 30.01 in SSE 2.0 mph 4.0 mph 95 % 0.00 in
02:30 71.6 °F 70.2 °F 30.01 in South 1.0 mph 4.0 mph 95 % 0.00 in
02:35 71.6 °F 70.2 °F 30.01 in SSE 2.0 mph 4.0 mph 95 % 0.00 in
02:40 71.4 °F 70.0 °F 30.01 in SSE 1.0 mph 3.0 mph 95 % 0.00 in
02:45 71.4 °F 70.0 °F 30.01 in Calm   3.0 mph 95 % 0.00 in
02:50 71.4 °F 70.0 °F 30.01 in Calm   2.0 mph 95 % 0.00 in
02:55 71.2 °F 69.8 °F 30.01 in Calm   1.0 mph 95 % 0.00 in
03:00 71.2 °F 69.8 °F 30.02 in Calm   1.0 mph 95 % 0.00 in
03:05 71.1 °F 69.6 °F 30.02 in Calm   1.0 mph 95 % 0.00 in
03:11 71.1 °F 69.8 °F 30.01 in SSW 1.0 mph 2.0 mph 96 % 0.00 in
03:16 70.9 °F 69.6 °F 30.01 in SSW 1.0 mph 2.0 mph 96 % 0.00 in
03:21 70.9 °F 69.6 °F 30.01 in SSW 1.0 mph 2.0 mph 96 % 0.00 in
03:26 70.9 °F 69.6 °F 30.01 in SSW 1.0 mph 2.0 mph 96 % 0.00 in
03:31 70.7 °F 69.4 °F 30.01 in SE 1.0 mph 2.0 mph 96 % 0.00 in
03:36 70.5 °F 69.3 °F 30.01 in Calm   2.0 mph 96 % 0.00 in
03:41 70.3 °F 69.1 °F 30.01 in Calm   2.0 mph 96 % 0.00 in
03:46 70.3 °F 69.1 °F 30.00 in Calm   1.0 mph 96 % 0.00 in
03:51 70.2 °F 68.9 °F 30.01 in Calm     96 % 0.00 in
03:56 69.8 °F 68.5 °F 30.01 in Calm     96 % 0.00 in
04:01 69.6 °F 68.4 °F 30.01 in Calm     96 % 0.00 in
04:06 69.4 °F 68.2 °F 30.00 in Calm   1.0 mph 96 % 0.00 in
04:10 69.3 °F 68.0 °F 30.00 in Calm   1.0 mph 96 % 0.00 in
04:15 69.3 °F 68.0 °F 30.00 in Calm   1.0 mph 96 % 0.00 in
04:21 69.3 °F 68.0 °F 30.00 in Calm   1.0 mph 96 % 0.00 in
04:25 69.1 °F 68.2 °F 29.99 in Calm   1.0 mph 97 % 0.00 in
04:30 69.1 °F 68.2 °F 30.00 in Calm   1.0 mph 97 % 0.00 in
04:36 69.1 °F 68.2 °F 30.00 in Calm   1.0 mph 97 % 0.00 in
04:41 68.9 °F 68.0 °F 30.00 in Calm   1.0 mph 97 % 0.00 in
04:46 68.9 °F 68.0 °F 30.00 in Calm   1.0 mph 97 % 0.00 in
04:51 68.7 °F 67.8 °F 30.01 in Calm   1.0 mph 97 % 0.00 in
04:56 68.7 °F 67.8 °F 30.01 in Calm   1.0 mph 97 % 0.00 in
05:01 68.5 °F 67.6 °F 30.00 in Calm   1.0 mph 97 % 0.00 in
05:06 68.5 °F 67.6 °F 30.00 in Calm   1.0 mph 97 % 0.00 in
05:07 68.5 °F 67.6 °F 30.00 in Calm   1.0 mph 97 % 0.00 in
05:12 68.5 °F 67.6 °F 30.00 in Calm     97 % 0.00 in
05:17 68.5 °F 67.6 °F 30.00 in Calm     97 % 0.00 in
05:22 68.5 °F 68.0 °F 30.00 in Calm   1.0 mph 98 % 0.00 in
05:27 68.5 °F 67.6 °F 30.00 in Calm   1.0 mph 97 % 0.00 in
05:32 68.5 °F 68.0 °F 30.00 in Calm   1.0 mph 98 % 0.00 in
05:37 68.4 °F 67.5 °F 30.00 in Calm   1.0 mph 97 % 0.00 in
05:42 68.5 °F 68.0 °F 30.00 in Calm   1.0 mph 98 % 0.00 in
05:47 68.5 °F 68.0 °F 30.00 in Calm   1.0 mph 98 % 0.00 in
05:52 68.4 °F 67.8 °F 30.00 in Calm   1.0 mph 98 % 0.00 in
05:57 68.4 °F 67.8 °F 29.99 in Calm     98 % 0.00 in
06:02 68.4 °F 67.8 °F 29.99 in Calm   1.0 mph 98 % 0.00 in
06:07 68.4 °F 67.8 °F 29.99 in Calm   1.0 mph 98 % 0.00 in
06:12 68.4 °F 67.8 °F 30.00 in Calm   1.0 mph 98 % 0.00 in
06:17 68.4 °F 67.8 °F 30.00 in Calm   1.0 mph 98 % 0.00 in
06:22 68.4 °F 67.8 °F 30.00 in Calm   1.0 mph 98 % 0.00 in
06:27 68.4 °F 67.8 °F 30.00 in Calm   1.0 mph 98 % 0.00 in
06:32 68.4 °F 67.8 °F 30.00 in Calm   1.0 mph 98 % 0.00 in
06:37 68.4 °F 67.8 °F 30.01 in Calm   1.0 mph 98 % 0.00 in
06:42 68.4 °F 67.8 °F 30.01 in Calm     98 % 0.00 in
06:47 68.5 °F 68.0 °F 30.01 in Calm     98 % 0.00 in
06:52 68.5 °F 68.0 °F 30.01 in Calm     98 % 0.00 in
06:57 68.5 °F 68.0 °F 30.01 in Calm     98 % 0.00 in
07:02 68.5 °F 68.0 °F 30.01 in SSE 1.0 mph   98 % 0.00 in
07:07 68.5 °F 68.0 °F 30.01 in Calm   1.0 mph 98 % 0.00 in
07:12 68.5 °F 68.0 °F 30.01 in Calm   1.0 mph 98 % 0.00 in
07:13 68.5 °F 68.0 °F 30.01 in Calm   1.0 mph 98 % 0.00 in
07:18 68.7 °F 68.2 °F 30.01 in Calm   1.0 mph 98 % 0.00 in
07:23 68.7 °F 68.2 °F 30.01 in Calm   1.0 mph 98 % 0.00 in
07:28 68.7 °F 68.2 °F 30.01 in NNW 2.0 mph 2.0 mph 98 % 0.00 in
07:33 68.9 °F 68.4 °F 30.01 in Calm   4.0 mph 98 % 0.00 in
07:38 69.1 °F 68.5 °F 30.01 in Calm   4.0 mph 98 % 0.00 in
07:43 69.1 °F 68.5 °F 30.01 in Calm   4.0 mph 98 % 0.00 in
07:48 69.1 °F 68.5 °F 30.01 in East 1.0 mph 4.0 mph 98 % 0.00 in
07:53 69.3 °F 68.7 °F 30.01 in Calm   5.0 mph 98 % 0.00 in
07:58 69.3 °F 68.7 °F 30.01 in Calm   5.0 mph 98 % 0.00 in
07:59 69.3 °F 68.7 °F 30.01 in Calm   5.0 mph 98 % 0.00 in
08:04 69.4 °F 68.9 °F 30.02 in SE 1.0 mph 5.0 mph 98 % 0.00 in
08:09 69.6 °F 69.3 °F 30.02 in Calm   4.0 mph 99 % 0.00 in
08:14 69.6 °F 69.3 °F 30.03 in NNE 1.0 mph 4.0 mph 99 % 0.00 in
08:19 69.8 °F 69.4 °F 30.03 in Calm   4.0 mph 99 % 0.00 in
08:24 70.2 °F 69.8 °F 30.03 in Calm   3.0 mph 99 % 0.00 in
08:29 70.5 °F 70.2 °F 30.03 in East 1.0 mph 2.0 mph 99 % 0.00 in
08:34 70.7 °F 70.3 °F 30.03 in Calm   2.0 mph 99 % 0.00 in
08:39 71.1 °F 70.7 °F 30.03 in East 1.0 mph 2.0 mph 99 % 0.00 in
08:44 71.1 °F 70.5 °F 30.03 in Calm   4.0 mph 98 % 0.00 in
08:49 71.1 °F 70.5 °F 30.03 in Calm   4.0 mph 98 % 0.00 in
08:54 71.1 °F 70.5 °F 30.03 in ENE 3.0 mph 4.0 mph 98 % 0.00 in
08:59 71.2 °F 70.7 °F 30.03 in Calm   4.0 mph 98 % 0.00 in
09:04 71.2 °F 70.7 °F 30.04 in East 2.0 mph 4.0 mph 98 % 0.00 in
09:09 71.8 °F 71.2 °F 30.04 in East 1.0 mph 4.0 mph 98 % 0.00 in
09:14 72.0 °F 71.4 °F 30.04 in Calm   4.0 mph 98 % 0.00 in
09:19 72.3 °F 71.8 °F 30.04 in ESE 2.0 mph 3.0 mph 98 % 0.00 in
09:24 72.7 °F 71.8 °F 30.04 in Calm   3.0 mph 97 % 0.00 in
09:29 73.0 °F 72.1 °F 30.04 in ESE 1.0 mph 4.0 mph 97 % 0.00 in
09:34 73.9 °F 73.0 °F 30.04 in East 1.0 mph 4.0 mph 97 % 0.00 in
09:39 74.5 °F 73.2 °F 30.04 in SE 1.0 mph 4.0 mph 96 % 0.00 in
09:40 74.5 °F 73.2 °F 30.04 in SSE 1.0 mph 4.0 mph 96 % 0.00 in
09:44 74.8 °F 73.0 °F 30.04 in Calm   4.0 mph 94 % 0.00 in
09:49 75.6 °F 73.4 °F 30.04 in SSW 4.0 mph 4.0 mph 93 % 0.00 in
09:54 76.1 °F 73.2 °F 30.04 in SW 6.0 mph 6.0 mph 91 % 0.00 in
09:59 76.5 °F 72.3 °F 30.04 in East 5.0 mph 8.0 mph 87 % 0.00 in
10:05 76.5 °F 72.0 °F 30.04 in South 5.0 mph 8.0 mph 86 % 0.00 in
10:09 76.6 °F 71.4 °F 30.04 in SE 1.0 mph 8.0 mph 84 % 0.00 in
10:14 76.6 °F 71.4 °F 30.04 in SSW 4.0 mph 7.0 mph 84 % 0.00 in
10:19 76.8 °F 71.6 °F 30.04 in SE 4.0 mph 7.0 mph 84 % 0.00 in
10:24 77.4 °F 71.8 °F 30.04 in SSE 4.0 mph 7.0 mph 83 % 0.00 in
10:29 78.1 °F 72.1 °F 30.04 in SSW 4.0 mph 7.0 mph 82 % 0.00 in
10:34 78.4 °F 71.4 °F 30.05 in SSE 4.0 mph 7.0 mph 79 % 0.00 in
10:40 78.8 °F 72.1 °F 30.04 in SW 1.0 mph 7.0 mph 80 % 0.00 in
10:45 79.2 °F 70.9 °F 30.04 in SE 4.0 mph 7.0 mph 76 % 0.00 in
10:49 79.5 °F 70.9 °F 30.04 in SE 3.0 mph 8.0 mph 75 % 0.00 in
10:54 79.9 °F 71.6 °F 30.04 in SE 2.0 mph 8.0 mph 76 % 0.00 in
11:00 79.9 °F 70.9 °F 30.04 in South 3.0 mph 8.0 mph 74 % 0.00 in
11:05 80.4 °F 71.4 °F 30.04 in SSW 6.0 mph 8.0 mph 74 % 0.00 in
11:10 81.0 °F 71.4 °F 30.04 in SSE 1.0 mph 8.0 mph 73 % 0.00 in
11:15 81.7 °F 71.4 °F 30.04 in East 5.0 mph 7.0 mph 71 % 0.00 in
11:20 81.9 °F 70.3 °F 30.04 in SE 4.0 mph 8.0 mph 68 % 0.00 in
11:25 81.5 °F 70.0 °F 30.04 in SE 4.0 mph 9.0 mph 68 % 0.00 in
11:30 81.7 °F 69.6 °F 30.04 in South 5.0 mph 9.0 mph 67 % 0.00 in
11:35 81.3 °F 69.3 °F 30.03 in East 3.0 mph 9.0 mph 67 % 0.00 in
11:40 81.3 °F 70.2 °F 30.03 in SE 4.0 mph 9.0 mph 69 % 0.00 in
11:45 81.7 °F 70.2 °F 30.03 in ESE 3.0 mph 7.0 mph 68 % 0.00 in
11:50 82.0 °F 69.6 °F 30.03 in SE 4.0 mph 8.0 mph 66 % 0.00 in
11:55 82.4 °F 70.0 °F 30.03 in ESE 2.0 mph 8.0 mph 66 % 0.00 in
12:00 82.2 °F 69.3 °F 30.03 in SW 3.0 mph 8.0 mph 65 % 0.00 in
12:05 82.0 °F 69.1 °F 30.02 in SE 6.0 mph 10.0 mph 65 % 0.00 in
12:10 82.0 °F 69.6 °F 30.02 in ESE 2.0 mph 10.0 mph 66 % 0.00 in
12:15 82.0 °F 69.1 °F 30.02 in SE 3.0 mph 10.0 mph 65 % 0.00 in
12:20 82.6 °F 69.1 °F 30.02 in SE 4.0 mph 10.0 mph 64 % 0.00 in
12:25 82.6 °F 69.6 °F 30.02 in SSE 3.0 mph 9.0 mph 65 % 0.00 in
12:30 82.8 °F 69.3 °F 30.02 in ENE 3.0 mph 9.0 mph 64 % 0.00 in
12:35 82.9 °F 68.2 °F 30.02 in East 6.0 mph 9.0 mph 61 % 0.00 in
12:40 82.9 °F 69.1 °F 30.01 in SE 5.0 mph 10.0 mph 63 % 0.00 in
12:45 83.1 °F 68.7 °F 30.01 in South 6.0 mph 10.0 mph 62 % 0.00 in
12:50 83.1 °F 68.7 °F 30.01 in ESE 6.0 mph 10.0 mph 62 % 0.00 in
12:55 83.8 °F 70.3 °F 30.00 in SSE 8.0 mph 11.0 mph 64 % 0.00 in
13:00 83.8 °F 70.0 °F 30.00 in SSE 7.0 mph 11.0 mph 63 % 0.00 in
13:05 83.8 °F 69.4 °F 29.99 in ESE 6.0 mph 14.0 mph 62 % 0.00 in
13:10 83.7 °F 70.2 °F 29.99 in South 3.0 mph 14.0 mph 64 % 0.00 in
13:15 83.5 °F 69.1 °F 29.99 in East 7.0 mph 14.0 mph 62 % 0.00 in
13:20 82.9 °F 69.4 °F 29.99 in East 6.0 mph 12.0 mph 64 % 0.00 in
13:25 82.8 °F 69.8 °F 29.99 in East 8.0 mph 15.0 mph 65 % 0.00 in
13:30 82.0 °F 68.7 °F 29.99 in SE 10.0 mph 16.0 mph 64 % 0.00 in
13:35 81.7 °F 67.5 °F 29.99 in SE 5.0 mph 17.0 mph 62 % 0.00 in
13:40 81.3 °F 68.4 °F 29.98 in SE 5.0 mph 17.0 mph 65 % 0.00 in
13:41 81.3 °F 68.9 °F 29.98 in ESE 6.0 mph 17.0 mph 66 % 0.00 in
13:46 81.1 °F 69.6 °F 29.98 in SE 5.0 mph 17.0 mph 68 % 0.00 in
13:51 81.1 °F 69.6 °F 29.97 in East 6.0 mph 12.0 mph 68 % 0.00 in
13:56 81.3 °F 70.2 °F 29.97 in ENE 4.0 mph 12.0 mph 69 % 0.00 in
14:01 81.9 °F 70.7 °F 29.97 in SE 1.0 mph 12.0 mph 69 % 0.00 in
14:06 81.9 °F 71.1 °F 29.97 in ESE 9.0 mph 11.0 mph 70 % 0.00 in
14:11 82.0 °F 70.0 °F 29.97 in SE 3.0 mph 9.0 mph 67 % 0.00 in
14:16 82.0 °F 70.9 °F 29.96 in ENE 2.0 mph 9.0 mph 69 % 0.00 in
14:21 82.0 °F 70.9 °F 29.96 in ENE 4.0 mph 10.0 mph 69 % 0.00 in
14:26 82.2 °F 70.5 °F 29.96 in ESE 4.0 mph 10.0 mph 68 % 0.00 in
14:31 82.6 °F 70.9 °F 29.96 in East 6.0 mph 10.0 mph 68 % 0.00 in
14:36 82.6 °F 70.9 °F 29.96 in NNE 3.0 mph 8.0 mph 68 % 0.00 in
14:41 82.4 °F 71.2 °F 29.95 in SW 1.0 mph 10.0 mph 69 % 0.00 in
14:46 82.8 °F 70.7 °F 29.95 in East 1.0 mph 10.0 mph 67 % 0.00 in
14:51 82.9 °F 70.9 °F 29.95 in SSE 4.0 mph 10.0 mph 67 % 0.00 in
14:56 82.8 °F 70.7 °F 29.95 in ESE 2.0 mph 12.0 mph 67 % 0.00 in
15:01 82.4 °F 69.4 °F 29.95 in ESE 11.0 mph 12.0 mph 65 % 0.00 in
15:06 82.0 °F 70.0 °F 29.94 in ESE 6.0 mph 13.0 mph 67 % 0.00 in
15:11 82.0 °F 70.0 °F 29.94 in ESE 7.0 mph 13.0 mph 67 % 0.00 in
15:16 82.0 °F 70.0 °F 29.94 in SSE 5.0 mph 13.0 mph 67 % 0.00 in
15:21 82.2 °F 70.5 °F 29.94 in SE 5.0 mph 11.0 mph 68 % 0.00 in
15:26 82.2 °F 69.8 °F 29.94 in ESE 4.0 mph 11.0 mph 66 % 0.00 in
15:31 81.9 °F 69.8 °F 29.93 in ENE 2.0 mph 10.0 mph 67 % 0.00 in
15:36 82.0 °F 69.6 °F 29.93 in East 3.0 mph 10.0 mph 66 % 0.00 in
15:41 82.0 °F 69.6 °F 29.93 in SE 4.0 mph 9.0 mph 66 % 0.00 in
15:46 81.9 °F 69.4 °F 29.92 in SE 5.0 mph 9.0 mph 66 % 0.00 in
15:51 81.9 °F 69.8 °F 29.92 in ESE 6.0 mph 10.0 mph 67 % 0.00 in
15:56 81.9 °F 69.8 °F 29.93 in ESE 5.0 mph 11.0 mph 67 % 0.00 in
16:01 81.7 °F 69.6 °F 29.92 in East 2.0 mph 11.0 mph 67 % 0.00 in
16:06 81.9 °F 69.4 °F 29.92 in SE 3.0 mph 11.0 mph 66 % 0.00 in
16:11 81.9 °F 69.4 °F 29.92 in East 4.0 mph 10.0 mph 66 % 0.00 in
16:16 82.0 °F 68.7 °F 29.92 in SSE 3.0 mph 8.0 mph 64 % 0.00 in
16:21 82.2 °F 68.9 °F 29.93 in SE 3.0 mph 7.0 mph 64 % 0.00 in
16:26 82.0 °F 68.7 °F 29.93 in East 8.0 mph 10.0 mph 64 % 0.00 in
16:31 81.7 °F 69.3 °F 29.93 in SSE 4.0 mph 10.0 mph 66 % 0.00 in
16:36 81.9 °F 69.4 °F 29.93 in ESE 8.0 mph 10.0 mph 66 % 0.00 in
16:41 81.7 °F 69.3 °F 29.93 in ESE 5.0 mph 11.0 mph 66 % 0.00 in
16:46 81.5 °F 69.1 °F 29.93 in SE 3.0 mph 12.0 mph 66 % 0.00 in
16:51 81.3 °F 68.9 °F 29.93 in SSW 3.0 mph 12.0 mph 66 % 0.00 in
16:56 81.7 °F 69.3 °F 29.93 in SSW 8.0 mph 12.0 mph 66 % 0.00 in
17:01 81.7 °F 67.5 °F 29.92 in SE 8.0 mph 9.0 mph 62 % 0.00 in
17:06 81.7 °F 67.5 °F 29.93 in South 3.0 mph 13.0 mph 62 % 0.00 in
17:11 81.0 °F 67.1 °F 29.94 in WNW 3.0 mph 13.0 mph 63 % 0.00 in
17:16 77.7 °F 65.8 °F 29.94 in WSW 2.0 mph 13.0 mph 67 % 0.00 in
17:21 75.6 °F 65.8 °F 29.94 in SW 1.0 mph 10.0 mph 72 % 0.00 in
17:26 74.5 °F 65.7 °F 29.94 in SW 3.0 mph 10.0 mph 74 % 0.00 in
17:31 73.6 °F 65.8 °F 29.96 in Calm   10.0 mph 77 % 0.02 in
17:36 72.3 °F 66.2 °F 29.96 in SSW 1.0 mph 10.0 mph 81 % 0.19 in
17:41 71.1 °F 66.0 °F 29.96 in WSW 1.0 mph 8.0 mph 84 % 0.32 in
17:46 69.8 °F 65.8 °F 29.95 in SSE 1.0 mph 8.0 mph 87 % 0.41 in
17:51 69.1 °F 66.0 °F 29.96 in West 2.0 mph 8.0 mph 90 % 0.44 in
17:56 68.5 °F 65.8 °F 29.96 in West 1.0 mph 8.0 mph 91 % 0.44 in
18:01 68.4 °F 66.0 °F 29.96 in WNW 2.0 mph 6.0 mph 92 % 0.44 in
18:06 68.2 °F 65.8 °F 29.97 in West 4.0 mph 6.0 mph 92 % 0.44 in
18:11 67.8 °F 65.5 °F 29.97 in Calm   6.0 mph 92 % 0.44 in
18:16 67.6 °F 65.5 °F 29.97 in WNW 2.0 mph 6.0 mph 93 % 0.44 in
18:21 67.5 °F 65.3 °F 29.97 in Calm   6.0 mph 93 % 0.44 in
18:23 67.5 °F 65.3 °F 29.98 in WNW 1.0 mph 6.0 mph 93 % 0.44 in
18:28 67.3 °F 65.1 °F 29.97 in West 1.0 mph 6.0 mph 93 % 0.44 in
18:33 67.3 °F 65.1 °F 29.97 in West 2.0 mph 6.0 mph 93 % 0.41 in
18:38 67.3 °F 65.5 °F 29.98 in SW 1.0 mph 4.0 mph 94 % 0.25 in
18:43 67.3 °F 65.5 °F 29.98 in West 2.0 mph 4.0 mph 94 % 0.12 in
18:48 67.3 °F 65.5 °F 29.98 in Calm   5.0 mph 94 % 0.03 in
18:53 67.3 °F 65.1 °F 29.98 in NW 2.0 mph 6.0 mph 93 % 0.00 in
18:58 67.3 °F 65.5 °F 29.98 in WNW 2.0 mph 6.0 mph 94 % 0.00 in
19:03 67.3 °F 65.5 °F 29.98 in West 2.0 mph 6.0 mph 94 % 0.00 in
19:08 67.3 °F 65.5 °F 29.98 in NW 3.0 mph 4.0 mph 94 % 0.00 in
19:13 67.3 °F 65.5 °F 29.97 in Calm   5.0 mph 94 % 0.00 in
19:18 67.3 °F 65.5 °F 29.97 in NNW 2.0 mph 5.0 mph 94 % 0.00 in
19:23 67.3 °F 65.5 °F 29.97 in Calm   5.0 mph 94 % 0.01 in
19:28 67.3 °F 65.8 °F 29.97 in NNW 1.0 mph 3.0 mph 95 % 0.02 in
19:33 67.3 °F 65.8 °F 29.96 in WNW 2.0 mph 3.0 mph 95 % 0.02 in
19:38 67.3 °F 65.8 °F 29.96 in Calm   3.0 mph 95 % 0.03 in
19:43 67.3 °F 65.8 °F 29.97 in Calm   3.0 mph 95 % 0.04 in
19:48 67.3 °F 65.8 °F 29.96 in NNW 1.0 mph 3.0 mph 95 % 0.04 in
19:53 67.3 °F 66.0 °F 29.96 in Calm   2.0 mph 96 % 0.05 in
19:58 67.5 °F 66.2 °F 29.96 in Calm   2.0 mph 96 % 0.05 in
20:03 67.3 °F 66.0 °F 29.96 in Calm   2.0 mph 96 % 0.05 in
20:08 67.3 °F 66.0 °F 29.96 in North 1.0 mph 2.0 mph 96 % 0.05 in
20:13 67.3 °F 66.0 °F 29.96 in North 1.0 mph 2.0 mph 96 % 0.05 in
20:18 67.3 °F 66.0 °F 29.96 in Calm   4.0 mph 96 % 0.05 in
20:23 67.1 °F 65.8 °F 29.96 in Calm   4.0 mph 96 % 0.04 in
20:24 67.1 °F 65.8 °F 29.96 in Calm   4.0 mph 96 % 0.04 in
20:29 67.1 °F 65.8 °F 29.96 in Calm   4.0 mph 96 % 0.03 in
20:34 66.9 °F 65.7 °F 29.97 in Calm   2.0 mph 96 % 0.03 in
20:39 66.9 °F 65.7 °F 29.96 in Calm   2.0 mph 96 % 0.02 in
20:44 66.9 °F 66.0 °F 29.97 in Calm   2.0 mph 97 % 0.01 in
20:49 66.9 °F 66.0 °F 29.97 in Calm   1.0 mph 97 % 0.01 in
20:54 66.9 °F 66.0 °F 29.97 in Calm   1.0 mph 97 % 0.00 in
20:59 66.9 °F 66.0 °F 29.97 in Calm   1.0 mph 97 % 0.00 in
21:04 66.9 °F 66.0 °F 29.97 in Calm   1.0 mph 97 % 0.00 in
21:09 66.9 °F 66.0 °F 29.98 in Calm   1.0 mph 97 % 0.00 in
21:14 66.7 °F 65.8 °F 29.98 in Calm     97 % 0.00 in
21:19 66.7 °F 65.8 °F 29.98 in Calm     97 % 0.00 in
21:24 66.7 °F 65.8 °F 29.98 in Calm     97 % 0.00 in
21:29 66.9 °F 66.0 °F 29.99 in Calm     97 % 0.00 in
21:34 67.1 °F 66.2 °F 29.99 in Calm   1.0 mph 97 % 0.00 in
21:39 67.3 °F 66.4 °F 29.99 in Calm   1.0 mph 97 % 0.00 in
21:44 67.3 °F 66.4 °F 29.99 in Calm   1.0 mph 97 % 0.00 in
21:49 67.5 °F 66.6 °F 30.00 in Calm   1.0 mph 97 % 0.00 in
21:54 67.5 °F 66.6 °F 30.00 in Calm   2.0 mph 97 % 0.00 in
21:59 67.5 °F 66.6 °F 30.00 in Calm   2.0 mph 97 % 0.00 in
22:04 67.5 °F 66.6 °F 30.00 in Calm   2.0 mph 97 % 0.00 in
22:09 67.5 °F 66.6 °F 30.00 in Calm   1.0 mph 97 % 0.00 in
22:14 67.6 °F 66.7 °F 30.00 in Calm   1.0 mph 97 % 0.00 in
22:19 67.6 °F 66.7 °F 30.00 in Calm   1.0 mph 97 % 0.00 in
22:24 67.6 °F 66.7 °F 30.00 in Calm   1.0 mph 97 % 0.00 in
22:29 67.6 °F 66.7 °F 30.00 in Calm   1.0 mph 97 % 0.00 in
22:34 67.8 °F 67.3 °F 30.00 in Calm   1.0 mph 98 % 0.00 in
22:40 67.8 °F 67.3 °F 30.00 in Calm   1.0 mph 98 % 0.00 in
22:45 67.8 °F 67.3 °F 30.00 in Calm   1.0 mph 98 % 0.00 in
22:50 67.8 °F 67.3 °F 30.00 in Calm   1.0 mph 98 % 0.00 in
22:55 67.8 °F 67.3 °F 30.00 in NNE 2.0 mph 2.0 mph 98 % 0.00 in
23:00 67.8 °F 67.3 °F 30.00 in Calm   2.0 mph 98 % 0.00 in
23:05 67.8 °F 67.3 °F 30.00 in Calm   2.0 mph 98 % 0.00 in
23:10 67.8 °F 67.3 °F 30.00 in NNE 1.0 mph 3.0 mph 98 % 0.00 in
23:15 67.6 °F 67.1 °F 30.00 in Calm   3.0 mph 98 % 0.00 in
23:20 67.6 °F 67.1 °F 30.00 in Calm   3.0 mph 98 % 0.00 in
23:25 67.6 °F 67.1 °F 30.00 in Calm   2.0 mph 98 % 0.00 in
23:30 67.6 °F 67.1 °F 30.00 in Calm   1.0 mph 98 % 0.00 in
23:35 67.6 °F 67.1 °F 30.00 in North 1.0 mph 4.0 mph 98 % 0.00 in
23:40 67.5 °F 66.9 °F 29.99 in NNW 1.0 mph 4.0 mph 98 % 0.01 in
23:45 67.5 °F 66.9 °F 29.99 in Calm   4.0 mph 98 % 0.01 in
23:50 67.3 °F 66.7 °F 29.99 in Calm   4.0 mph 98 % 0.01 in
23:55 67.1 °F 66.6 °F 29.99 in ENE 2.0 mph 4.0 mph 98 % 0.01 in
Spring, Texas: Villages of Bridgestone
Compliments of Weather Underground - 3.25 mb

Script developed by  Jim McMurry - jmcmurry@mwt.net Adapted for the template by  Wim van der Kuil - Leuven-Template.eu

You find our weather info also at:

UK Metoffice

WeatherCloud

Weather Underground

Mid-South Weather Network

AWEKAS

Citizen Weather Observer Program (CWOP)

HAMweather, WeatherForYou, PWS Weather

Equipment we use:

Weather-station
Davis Vantage Vue

Weather-program
Meteohub

Weather-server
Debian 7.9 x86 (Guest)

Provider
DreamHost

Davis Vantage Vue

Meteohub

Debian 7.9 x86 (Guest)

DreamHost